createdAt,value
2019-04-21T00:00:39.722Z,7.67
2019-04-21T00:03:18.099Z,7.83
2019-04-21T00:06:03.016Z,8.38
2019-04-21T00:11:09.752Z,6.67
2019-04-21T00:13:27.962Z,5.75
2019-04-21T00:15:54.979Z,7.67
2019-04-21T00:18:47.654Z,6.72
2019-04-21T00:21:21.153Z,7.20
2019-04-21T00:24:01.832Z,5.87
2019-04-21T00:26:33.312Z,11.03
2019-04-21T00:29:12.504Z,4.37
2019-04-21T00:31:33.671Z,8.18
2019-04-21T00:33:50.178Z,7.17
2019-04-21T00:36:25.949Z,5.30
2019-04-21T00:39:23.203Z,7.28
2019-04-21T00:41:43.919Z,8.07
2019-04-21T00:44:10.961Z,10.40
2019-04-21T00:46:46.049Z,7.37
2019-04-21T00:49:18.160Z,5.42
2019-04-21T00:52:24.642Z,7.95
2019-04-21T00:54:53.761Z,5.70
2019-04-21T00:57:18.093Z,5.62
2019-04-21T00:59:46.355Z,5.58
2019-04-21T01:02:19.911Z,6.95
2019-04-21T01:04:49.518Z,6.25
2019-04-21T01:07:20.775Z,6.25
2019-04-21T01:09:48.837Z,5.25
2019-04-21T01:12:27.665Z,6.37
2019-04-21T01:15:03.851Z,5.45
2019-04-21T01:17:29.062Z,6.35
2019-04-21T01:19:56.050Z,5.75
2019-04-21T01:22:10.098Z,8.75
2019-04-21T01:24:43.838Z,6.17
2019-04-21T01:27:22.519Z,8.28
2019-04-21T01:30:06.415Z,6.80
2019-04-21T01:32:35.659Z,6.65
2019-04-21T01:35:08.399Z,7.53
2019-04-21T01:37:45.535Z,6.72
2019-04-21T01:40:16.942Z,6.28
2019-04-21T01:42:41.153Z,7.70
2019-04-21T01:45:15.720Z,5.72
2019-04-21T01:47:46.440Z,6.55
2019-04-21T01:50:08.417Z,5.58
2019-04-21T01:53:02.127Z,7.20
2019-04-21T01:55:40.962Z,5.17
2019-04-21T02:00:51.806Z,7.53
2019-04-21T02:03:37.454Z,7.05
2019-04-21T02:05:53.228Z,6.37
2019-04-21T02:08:23.192Z,6.92
2019-04-21T02:11:00.303Z,5.25
2019-04-21T02:13:24.696Z,7.12
2019-04-21T02:16:01.101Z,7.53
2019-04-21T02:18:29.203Z,6.30
2019-04-21T02:20:48.268Z,5.78
2019-04-21T02:23:40.665Z,7.67
2019-04-21T02:26:03.762Z,7.05
2019-04-21T02:28:42.347Z,7.33
2019-04-21T02:36:46.507Z,8.90
2019-04-21T02:39:02.399Z,6.47
2019-04-21T02:41:22.870Z,7.72
2019-04-21T02:44:00.708Z,5.10
2019-04-21T02:46:31.324Z,7.47
2019-04-21T02:59:10.866Z,6.75
2019-04-21T03:07:09.771Z,5.47
2019-04-21T03:09:31.452Z,6.85
2019-04-21T03:14:51.803Z,6.72
2019-04-21T03:25:20.430Z,7.83
2019-04-21T03:27:35.536Z,7.75
2019-04-21T03:29:54.700Z,5.45
2019-04-21T03:32:51.303Z,8.08
2019-04-21T03:39:59.366Z,6.50
2019-04-21T03:44:55.223Z,6.22
2019-04-21T03:47:32.690Z,6.28
2019-04-21T03:50:04.710Z,5.70
2019-04-21T04:03:35.249Z,6.42
2019-04-21T04:05:57.531Z,9.35
2019-04-21T04:08:44.716Z,7.22
2019-04-21T04:13:47.700Z,10.25
2019-04-21T04:16:07.070Z,6.60
2019-04-21T04:18:46.613Z,9.23
2019-04-21T04:21:20.820Z,8.88
2019-04-21T04:23:47.224Z,7.35
2019-04-21T04:26:19.443Z,11.08
2019-04-21T04:29:04.177Z,8.58
2019-04-21T04:31:25.802Z,7.03
2019-04-21T04:36:46.552Z,11.60
2019-04-21T04:39:36.979Z,8.90
2019-04-21T04:42:14.567Z,11.08
2019-04-21T04:49:43.615Z,6.45
2019-04-21T04:52:21.046Z,9.75
2019-04-21T04:54:47.191Z,11.60
2019-04-21T04:59:43.104Z,8.30
2019-04-21T05:02:20.323Z,7.80
2019-04-21T05:04:56.443Z,9.95
2019-04-21T05:07:16.523Z,8.58
2019-04-21T05:09:46.868Z,8.95
2019-04-21T05:12:11.740Z,13.95
2019-04-21T05:20:01.774Z,12.63
2019-04-21T05:24:46.588Z,12.45
2019-04-21T05:27:29.343Z,9.78
2019-04-21T05:30:16.865Z,11.45
2019-04-21T05:32:52.512Z,12.93
2019-04-21T05:35:43.315Z,10.15
2019-04-21T05:38:15.670Z,9.60
2019-04-21T05:40:35.863Z,11.43
2019-04-21T05:43:20.222Z,12.68
2019-04-21T05:45:50.228Z,12.93
2019-04-21T05:48:22.843Z,13.98
2019-04-21T05:53:24.311Z,14.03
2019-04-21T05:58:28.817Z,9.95
2019-04-21T06:03:41.131Z,13.98
2019-04-21T06:06:08.545Z,12.70
2019-04-21T06:08:31.436Z,10.00
2019-04-21T06:11:09.699Z,10.90
2019-04-21T06:13:43.938Z,15.40
2019-04-21T06:16:08.882Z,10.95
2019-04-21T06:21:11.558Z,13.30
2019-04-21T06:23:40.180Z,12.65
2019-04-21T06:26:26.889Z,12.60
2019-04-21T06:28:45.384Z,17.98
2019-04-21T06:31:30.706Z,11.90
2019-04-21T06:44:01.810Z,11.85
2019-04-21T06:49:02.556Z,14.33
2019-04-21T06:51:32.249Z,12.65
2019-04-21T06:59:08.314Z,10.85
2019-04-21T07:01:42.239Z,14.35
2019-04-21T07:04:17.323Z,10.95
2019-04-21T07:11:45.593Z,10.98
2019-04-21T07:14:28.082Z,10.48
2019-04-21T07:16:50.857Z,11.75
2019-04-21T07:21:51.070Z,15.65
2019-04-21T07:24:27.560Z,11.05
2019-04-21T07:26:55.375Z,10.30
2019-04-21T07:29:34.690Z,10.82
2019-04-21T07:34:34.344Z,7.70
2019-04-21T07:36:57.962Z,10.95
2019-04-21T07:39:35.836Z,6.87
2019-04-21T07:42:03.643Z,6.95
2019-04-21T07:44:32.614Z,11.20
2019-04-21T07:47:03.131Z,6.87
2019-04-21T07:49:46.687Z,6.90
2019-04-21T07:52:22.171Z,6.55
2019-04-21T07:55:05.641Z,10.80
2019-04-21T07:57:23.527Z,8.43
2019-04-21T08:00:14.973Z,10.18
2019-04-21T08:02:33.113Z,6.85
2019-04-21T08:05:07.604Z,10.13
2019-04-21T08:07:45.010Z,7.62
2019-04-21T08:10:02.911Z,7.58
2019-04-21T08:12:31.958Z,9.75
2019-04-21T08:15:16.903Z,9.68
2019-04-21T08:17:36.467Z,11.43
2019-04-21T08:20:07.442Z,10.43
2019-04-21T08:22:46.556Z,9.38
2019-04-21T08:25:18.207Z,10.38
2019-04-21T08:27:50.134Z,8.78
2019-04-21T08:30:22.794Z,10.80
2019-04-21T08:33:02.535Z,11.55
2019-04-21T08:37:50.849Z,10.53
2019-04-21T08:40:29.112Z,9.40
2019-04-21T08:42:55.452Z,9.83
2019-04-21T08:45:29.202Z,12.33
2019-04-21T08:47:58.232Z,11.10
2019-04-21T08:50:25.559Z,13.58
2019-04-21T08:52:59.791Z,8.78
2019-04-21T08:55:48.997Z,9.00
2019-04-21T08:58:36.999Z,9.58
2019-04-21T09:01:25.599Z,10.03
2019-04-21T09:03:56.044Z,10.50
2019-04-21T09:09:01.573Z,12.00
2019-04-21T09:11:23.585Z,10.13
2019-04-21T09:13:54.414Z,6.90
2019-04-21T09:16:27.782Z,9.75
2019-04-21T09:18:54.182Z,8.45
2019-04-21T09:21:32.697Z,12.35
2019-04-21T09:24:07.458Z,13.25
2019-04-21T09:26:35.605Z,9.50
2019-04-21T09:29:02.846Z,12.10
2019-04-21T09:31:25.974Z,9.90
2019-04-21T09:33:54.409Z,11.70
2019-04-21T09:36:25.123Z,10.58
2019-04-21T09:39:01.187Z,13.85
2019-04-21T09:41:28.346Z,11.22
2019-04-21T09:43:59.744Z,11.30
2019-04-21T09:46:34.162Z,14.47
2019-04-21T09:49:05.528Z,12.40
2019-04-21T09:51:34.492Z,10.45
2019-04-21T09:54:11.658Z,9.38
2019-04-21T09:56:45.551Z,10.63
2019-04-21T09:59:17.455Z,10.13
2019-04-21T10:01:57.585Z,11.18
2019-04-21T10:04:11.937Z,9.78
2019-04-21T10:06:43.094Z,12.30
2019-04-21T10:09:17.671Z,12.93
2019-04-21T10:11:45.840Z,16.02
2019-04-21T10:14:15.766Z,15.70
2019-04-21T10:16:47.291Z,12.90
2019-04-21T10:19:17.510Z,11.73
2019-04-21T10:21:47.858Z,12.63
2019-04-21T10:24:18.061Z,14.13
2019-04-21T10:26:49.246Z,9.38
2019-04-21T10:29:24.297Z,10.93
2019-04-21T10:31:50.642Z,11.33
2019-04-21T10:34:21.099Z,11.85
2019-04-21T10:36:51.248Z,10.40
2019-04-21T10:39:21.781Z,6.87
2019-04-21T10:41:51.677Z,9.98
2019-04-21T10:44:23.039Z,10.13
2019-04-21T10:46:54.533Z,11.45
2019-04-21T10:49:24.676Z,11.05
2019-04-21T10:51:55.010Z,14.70
2019-04-21T10:54:26.091Z,15.15
2019-04-21T10:56:56.665Z,15.80
2019-04-21T10:59:26.907Z,14.50
2019-04-21T11:01:56.910Z,18.67
2019-04-21T11:04:35.195Z,15.53
2019-04-21T11:07:10.438Z,16.02
2019-04-21T11:09:36.090Z,15.45
2019-04-21T11:12:06.281Z,16.42
2019-04-21T11:14:36.210Z,14.50
2019-04-21T11:17:06.184Z,17.40
2019-04-21T11:19:36.897Z,16.85
2019-04-21T11:22:07.181Z,14.75
2019-04-21T11:24:37.034Z,14.70
2019-04-21T11:27:06.866Z,14.95
2019-04-21T11:29:37.150Z,15.25
2019-04-21T11:32:07.239Z,15.95
2019-04-21T11:34:37.179Z,13.22
2019-04-21T11:37:08.660Z,12.40
2019-04-21T11:39:46.121Z,13.90
2019-04-21T11:42:12.049Z,20.05
2019-04-21T11:44:42.160Z,11.75
2019-04-21T11:47:14.332Z,9.88
2019-04-21T11:49:45.487Z,10.05
2019-04-21T11:52:16.607Z,12.50
2019-04-21T11:54:46.817Z,9.53
2019-04-21T11:57:23.956Z,11.83
2019-04-21T11:59:48.235Z,10.78
2019-04-21T12:02:19.355Z,10.13
2019-04-21T12:04:49.579Z,12.40
2019-04-21T12:07:19.705Z,12.93
2019-04-21T12:09:49.519Z,11.38
2019-04-21T12:12:19.344Z,13.58
2019-04-21T12:14:50.260Z,9.05
2019-04-21T12:17:20.372Z,10.10
2019-04-21T12:19:50.656Z,10.85
2019-04-21T12:22:25.341Z,8.85
2019-04-21T12:24:52.993Z,10.00
2019-04-21T12:27:23.151Z,13.68
2019-04-21T12:29:53.475Z,10.38
2019-04-21T12:32:30.974Z,12.58
2019-04-21T12:35:01.797Z,11.78
2019-04-21T12:37:33.000Z,9.83
2019-04-21T12:40:03.335Z,12.05
2019-04-21T12:42:34.683Z,10.55
2019-04-21T12:45:07.599Z,12.35
2019-04-21T12:47:37.828Z,8.70
2019-04-21T12:50:08.702Z,11.12
2019-04-21T12:52:39.658Z,7.22
2019-04-21T12:55:09.623Z,9.15
2019-04-21T12:57:39.544Z,9.83
2019-04-21T13:00:11.266Z,7.90
2019-04-21T13:02:41.233Z,10.93
2019-04-21T13:05:11.699Z,12.70
2019-04-21T13:07:41.707Z,7.95
2019-04-21T13:10:12.709Z,9.98
2019-04-21T13:12:43.789Z,7.60
2019-04-21T13:15:13.744Z,9.88
2019-04-21T13:17:45.751Z,7.58
2019-04-21T13:20:15.074Z,8.65
2019-04-21T13:22:46.095Z,9.70
2019-04-21T13:25:16.162Z,7.67
2019-04-21T13:27:47.223Z,11.22
2019-04-21T13:30:18.096Z,7.95
2019-04-21T13:32:49.261Z,13.53
2019-04-21T13:35:19.273Z,11.18
2019-04-21T13:37:50.635Z,8.28
2019-04-21T13:40:41.665Z,8.48
2019-04-21T13:42:57.300Z,8.60
2019-04-21T13:45:25.976Z,9.03
2019-04-21T13:47:56.695Z,8.65
2019-04-21T13:50:26.574Z,8.55
2019-04-21T13:52:56.822Z,7.87
2019-04-21T13:55:27.558Z,10.32
2019-04-21T13:57:58.815Z,6.97
2019-04-21T14:00:29.928Z,6.37
2019-04-21T14:03:00.852Z,9.40
2019-04-21T14:05:31.027Z,10.58
2019-04-21T14:08:01.050Z,7.60
2019-04-21T14:10:31.514Z,8.70
2019-04-21T14:13:02.575Z,9.18
2019-04-21T14:15:32.659Z,10.68
2019-04-21T14:18:02.776Z,7.42
2019-04-21T14:20:33.286Z,9.83
2019-04-21T14:23:13.553Z,13.15
2019-04-21T14:25:35.501Z,11.70
2019-04-21T14:28:06.120Z,9.23
2019-04-21T14:30:36.513Z,7.40
2019-04-21T14:33:07.811Z,8.48
2019-04-21T14:35:38.986Z,8.68
2019-04-21T14:38:09.127Z,10.90
2019-04-21T14:40:39.075Z,10.18
2019-04-21T14:43:10.162Z,7.20
2019-04-21T14:45:42.843Z,9.45
2019-04-21T14:51:06.755Z,8.48
2019-04-21T14:53:47.814Z,8.20
2019-04-21T14:56:17.816Z,7.97
2019-04-21T14:58:48.783Z,10.25
2019-04-21T15:01:19.829Z,9.93
2019-04-21T15:03:51.952Z,7.70
2019-04-21T15:06:23.163Z,9.58
2019-04-21T15:08:53.258Z,8.03
2019-04-21T15:11:24.221Z,9.85
2019-04-21T15:13:55.614Z,10.93
2019-04-21T15:16:26.886Z,8.10
2019-04-21T15:18:56.860Z,8.05
2019-04-21T15:21:26.850Z,7.60
2019-04-21T15:23:58.089Z,8.23
2019-04-21T15:26:28.467Z,10.58
2019-04-21T15:28:59.158Z,10.25
2019-04-21T15:31:33.027Z,9.18
2019-04-21T15:34:01.297Z,9.13
2019-04-21T15:36:33.284Z,9.73
2019-04-21T15:39:03.598Z,8.80
2019-04-21T15:41:34.425Z,8.23
2019-04-21T15:44:06.099Z,6.72
2019-04-21T15:46:37.515Z,8.40
2019-04-21T15:49:09.178Z,8.28
2019-04-21T15:51:39.999Z,8.98
2019-04-21T15:54:10.957Z,8.85
2019-04-21T15:56:42.731Z,7.70
2019-04-21T15:59:14.729Z,6.42
2019-04-21T16:01:50.557Z,8.30
2019-04-21T16:04:20.894Z,6.85
2019-04-21T16:06:51.152Z,8.83
2019-04-21T16:09:22.407Z,5.75
2019-04-21T16:11:53.546Z,7.67
2019-04-21T16:14:24.736Z,6.08
2019-04-21T16:16:54.663Z,7.33
2019-04-21T16:19:24.982Z,8.18
2019-04-21T16:21:54.877Z,7.25
2019-04-21T16:24:25.319Z,4.62
2019-04-21T16:26:56.480Z,9.38
2019-04-21T16:29:27.146Z,5.05
2019-04-21T16:31:57.452Z,6.53
2019-04-21T16:34:38.979Z,6.40
2019-04-21T16:36:59.459Z,4.95
2019-04-21T16:39:29.501Z,7.50
2019-04-21T16:42:00.409Z,11.00
2019-04-21T16:44:31.496Z,7.45
2019-04-21T16:47:01.410Z,4.53
2019-04-21T16:49:33.606Z,5.80
2019-04-21T16:52:12.219Z,3.90
2019-04-21T16:54:44.114Z,5.50
2019-04-21T16:57:15.663Z,3.97
2019-04-21T16:59:48.492Z,5.10
2019-04-21T17:02:18.722Z,7.67
2019-04-21T17:04:48.667Z,3.90
2019-04-21T17:07:19.903Z,4.67
2019-04-21T17:09:50.674Z,5.42
2019-04-21T17:12:22.333Z,6.95
2019-04-21T17:15:08.841Z,6.70
2019-04-21T17:17:45.877Z,4.85
2019-04-21T17:20:10.135Z,7.28
2019-04-21T17:22:27.878Z,4.87
2019-04-21T17:24:58.282Z,4.17
2019-04-21T17:27:29.203Z,5.10
2019-04-21T17:29:59.207Z,10.03
2019-04-21T17:32:34.312Z,6.75
2019-04-21T17:38:07.970Z,4.62
2019-04-21T17:40:38.080Z,6.37
2019-04-21T17:43:12.859Z,6.35
2019-04-21T17:45:39.544Z,5.55
2019-04-21T17:48:13.605Z,5.65
2019-04-21T17:50:49.503Z,8.13
2019-04-21T17:53:30.466Z,6.10
2019-04-21T17:56:22.112Z,6.85
2019-04-21T17:58:52.633Z,5.97
2019-04-21T18:01:32.161Z,5.30
2019-04-21T18:06:32.686Z,8.45
2019-04-21T18:09:08.876Z,5.05
2019-04-21T18:11:41.471Z,9.08
2019-04-21T18:13:47.191Z,7.83
2019-04-21T18:16:26.822Z,7.17
2019-04-21T18:18:48.786Z,8.15
2019-04-21T18:21:23.182Z,8.15
2019-04-21T18:24:04.923Z,6.50
2019-04-21T18:26:39.836Z,7.37
2019-04-21T18:29:00.702Z,9.98
2019-04-21T18:31:36.446Z,7.95
2019-04-21T18:34:10.986Z,7.22
2019-04-21T18:36:41.633Z,8.55
2019-04-21T18:39:33.899Z,6.72
2019-04-21T18:42:09.643Z,6.80
2019-04-21T18:44:53.810Z,8.63
2019-04-21T18:47:28.996Z,8.18
2019-04-21T18:49:41.945Z,13.53
2019-04-21T18:52:19.325Z,6.25
2019-04-21T18:55:00.409Z,10.15
2019-04-21T18:57:26.576Z,5.83
2019-04-21T18:59:49.368Z,5.40
2019-04-21T19:02:22.279Z,6.90
2019-04-21T19:04:54.489Z,7.40
2019-04-21T19:07:37.807Z,12.33
2019-04-21T19:13:17.408Z,9.10
2019-04-21T19:15:15.969Z,8.90
2019-04-21T19:20:19.445Z,10.95
2019-04-21T19:22:47.502Z,4.62
2019-04-21T19:25:23.920Z,6.78
2019-04-21T19:27:48.825Z,6.95
2019-04-21T19:32:58.291Z,8.65
2019-04-21T19:35:11.631Z,6.12
2019-04-21T19:37:49.805Z,8.78
2019-04-21T19:40:31.416Z,5.50
2019-04-21T19:42:57.056Z,4.90
2019-04-21T19:45:32.168Z,4.08
2019-04-21T19:48:08.061Z,14.45
2019-04-21T19:50:40.765Z,4.35
2019-04-21T19:53:01.204Z,5.35
2019-04-21T19:55:22.427Z,5.72
2019-04-21T19:57:52.710Z,6.85
2019-04-21T20:00:22.684Z,6.97
2019-04-21T20:02:52.501Z,5.85
2019-04-21T20:05:31.655Z,9.78
2019-04-21T20:08:11.810Z,5.78
2019-04-21T20:10:44.421Z,6.03
2019-04-21T20:13:33.850Z,6.85
2019-04-21T20:15:44.712Z,10.20
2019-04-21T20:18:13.714Z,5.22
2019-04-21T20:20:32.958Z,4.85
2019-04-21T20:23:03.152Z,9.53
2019-04-21T20:25:39.298Z,7.30
2019-04-21T20:28:15.041Z,8.38
2019-04-21T20:30:55.778Z,10.03
2019-04-21T20:36:03.327Z,5.22
2019-04-21T20:38:24.770Z,4.65
2019-04-21T20:40:52.692Z,7.67
2019-04-21T20:43:41.182Z,6.40
